createdAt,value
2018-12-03T00:02:14.350Z,100.00
2018-12-03T00:04:43.312Z,100.00
2018-12-03T00:07:12.245Z,100.00
2018-12-03T00:09:42.112Z,100.00
2018-12-03T00:12:13.070Z,100.00
2018-12-03T00:14:42.981Z,100.00
2018-12-03T00:17:13.940Z,100.00
2018-12-03T00:19:43.819Z,100.00
2018-12-03T00:22:12.682Z,100.00
2018-12-03T00:24:41.566Z,100.00
2018-12-03T00:27:10.512Z,100.00
2018-12-03T00:29:40.394Z,100.00
2018-12-03T00:32:11.332Z,100.00
2018-12-03T00:34:40.285Z,100.00
2018-12-03T00:37:09.189Z,100.00
2018-12-03T00:39:38.066Z,100.00
2018-12-03T00:42:06.950Z,100.00
2018-12-03T00:44:36.813Z,100.00
2018-12-03T00:47:06.782Z,100.00
2018-12-03T00:49:35.725Z,100.00
2018-12-03T00:52:04.622Z,100.00
2018-12-03T00:54:38.464Z,100.00
2018-12-03T00:57:07.848Z,100.00
2018-12-03T00:59:36.704Z,100.00
2018-12-03T01:02:11.877Z,100.00
2018-12-03T01:04:41.777Z,100.00
2018-12-03T01:07:10.657Z,100.00
2018-12-03T01:09:39.586Z,100.00
2018-12-03T01:12:08.456Z,100.00
2018-12-03T01:14:37.345Z,100.00
2018-12-03T01:17:07.256Z,100.00
2018-12-03T01:19:37.270Z,100.00
2018-12-03T01:22:07.199Z,100.00
2018-12-03T01:24:38.171Z,100.00
2018-12-03T01:27:07.045Z,100.00
2018-12-03T01:29:35.989Z,100.00
2018-12-03T01:32:05.984Z,100.00
2018-12-03T01:34:35.946Z,100.00
2018-12-03T01:37:06.880Z,100.00
2018-12-03T01:39:35.766Z,100.00
2018-12-03T01:42:04.691Z,100.00
2018-12-03T01:44:35.610Z,100.00
2018-12-03T01:47:04.599Z,100.00
2018-12-03T01:49:38.402Z,100.00
2018-12-03T01:52:09.360Z,100.00
2018-12-03T01:54:38.240Z,100.00
2018-12-03T01:57:07.152Z,100.00
2018-12-03T01:59:37.071Z,100.00
2018-12-03T02:02:08.149Z,100.00
2018-12-03T02:04:39.344Z,100.00
2018-12-03T02:07:08.223Z,100.00
2018-12-03T02:09:37.082Z,100.00
2018-12-03T02:12:06.011Z,100.00
2018-12-03T02:14:34.879Z,100.00
2018-12-03T02:17:03.754Z,100.00
2018-12-03T02:19:32.643Z,100.00
2018-12-03T02:22:02.625Z,100.00
2018-12-03T02:24:31.973Z,100.00
2018-12-03T02:27:01.415Z,100.00
2018-12-03T02:29:31.738Z,100.00
2018-12-03T02:32:01.052Z,100.00
2018-12-03T02:34:30.366Z,100.00
2018-12-03T02:36:59.819Z,100.00
2018-12-03T02:39:29.887Z,100.00
2018-12-03T02:42:00.839Z,100.00
2018-12-03T02:44:29.710Z,100.00
2018-12-03T02:46:58.602Z,100.00
2018-12-03T02:49:28.512Z,100.00
2018-12-03T02:51:58.471Z,100.00
2018-12-03T02:54:27.333Z,100.00
2018-12-03T02:56:56.224Z,100.00
2018-12-03T02:59:25.093Z,100.00
2018-12-03T03:01:54.202Z,100.00
2018-12-03T03:04:23.076Z,100.00
2018-12-03T03:06:54.094Z,100.00
2018-12-03T03:09:22.986Z,100.00
2018-12-03T03:11:52.911Z,100.00
2018-12-03T03:14:22.811Z,100.00
2018-12-03T03:16:52.986Z,100.00
2018-12-03T03:19:22.895Z,100.00
2018-12-03T03:21:51.776Z,100.00
2018-12-03T03:24:20.718Z,100.00
2018-12-03T03:26:49.621Z,100.00
2018-12-03T03:29:18.497Z,100.00
2018-12-03T03:31:48.445Z,100.00
2018-12-03T03:34:17.376Z,100.00
2018-12-03T03:36:46.298Z,100.00
2018-12-03T03:39:16.263Z,100.00
2018-12-03T03:41:46.179Z,100.00
2018-12-03T03:44:16.072Z,100.00
2018-12-03T03:46:44.948Z,100.00
2018-12-03T03:49:13.818Z,100.00
2018-12-03T03:51:45.007Z,100.00
2018-12-03T03:54:15.207Z,100.00
2018-12-03T03:56:44.083Z,100.00
2018-12-03T03:59:15.059Z,100.00
2018-12-03T04:01:44.948Z,100.00
2018-12-03T04:04:13.825Z,100.00
2018-12-03T04:06:43.776Z,100.00
2018-12-03T04:09:12.773Z,100.00
2018-12-03T04:11:42.673Z,100.00
2018-12-03T04:14:11.548Z,100.00
2018-12-03T04:16:40.432Z,100.00
2018-12-03T04:19:09.309Z,100.00
2018-12-03T04:21:39.232Z,100.00
2018-12-03T04:24:09.186Z,100.00
2018-12-03T04:26:38.031Z,100.00
2018-12-03T04:29:06.979Z,100.00
2018-12-03T04:31:36.868Z,100.00
2018-12-03T04:34:07.818Z,100.00
2018-12-03T04:36:36.698Z,100.00
2018-12-03T04:39:07.763Z,100.00
2018-12-03T04:41:36.821Z,100.00
2018-12-03T04:44:06.761Z,100.00
2018-12-03T04:46:36.677Z,100.00
2018-12-03T04:49:06.765Z,100.00
2018-12-03T04:51:35.711Z,100.00
2018-12-03T04:54:06.607Z,100.00
2018-12-03T04:56:36.544Z,100.00
2018-12-03T04:59:06.463Z,100.00
2018-12-03T05:01:35.483Z,100.00
2018-12-03T05:04:04.426Z,100.00
2018-12-03T05:06:34.375Z,100.00
2018-12-03T05:09:05.447Z,100.00
2018-12-03T05:11:35.415Z,100.00
2018-12-03T05:14:05.626Z,100.00
2018-12-03T05:16:35.658Z,100.00
2018-12-03T05:19:05.729Z,100.00
2018-12-03T05:21:35.699Z,100.00
2018-12-03T05:24:05.603Z,100.00
2018-12-03T05:26:35.494Z,100.00
2018-12-03T05:29:05.637Z,100.00
2018-12-03T05:31:34.492Z,100.00
2018-12-03T05:34:03.394Z,100.00
2018-12-03T05:36:32.275Z,100.00
2018-12-03T05:39:01.159Z,100.00
2018-12-03T05:41:30.037Z,100.00
2018-12-03T05:43:58.951Z,100.00
2018-12-03T05:46:27.860Z,100.00
2018-12-03T05:48:57.858Z,100.00
2018-12-03T05:51:27.810Z,100.00
2018-12-03T05:53:56.826Z,100.00
2018-12-03T05:56:26.727Z,100.00
2018-12-03T05:58:57.773Z,100.00
2018-12-03T06:01:28.701Z,100.00
2018-12-03T06:03:58.594Z,100.00
2018-12-03T06:06:28.695Z,100.00
2018-12-03T06:08:58.638Z,100.00
2018-12-03T06:11:28.542Z,100.00
2018-12-03T06:13:58.491Z,100.00
2018-12-03T06:16:27.415Z,100.00
2018-12-03T06:18:56.277Z,100.00
2018-12-03T06:21:26.172Z,100.00
2018-12-03T06:23:55.271Z,100.00
2018-12-03T06:26:24.161Z,100.00
2018-12-03T06:28:53.005Z,100.00
2018-12-03T06:31:22.969Z,100.00
2018-12-03T06:33:51.840Z,100.00
2018-12-03T06:36:21.758Z,100.00
2018-12-03T06:38:52.760Z,100.00
2018-12-03T06:41:22.737Z,100.00
2018-12-03T06:43:53.687Z,100.00
2018-12-03T06:46:24.626Z,100.00
2018-12-03T06:48:54.526Z,100.00
2018-12-03T06:51:24.475Z,100.00
2018-12-03T06:53:53.422Z,100.00
2018-12-03T06:56:23.333Z,100.00
2018-12-03T06:58:53.387Z,100.00
2018-12-03T07:01:23.278Z,100.00
2018-12-03T07:03:54.355Z,100.00
2018-12-03T07:06:24.316Z,100.00
2018-12-03T07:08:54.378Z,100.00
2018-12-03T07:11:24.443Z,100.00
2018-12-03T07:13:54.386Z,100.00
2018-12-03T07:16:24.316Z,100.00
2018-12-03T07:18:54.220Z,100.00
2018-12-03T07:21:25.152Z,100.00
2018-12-03T07:23:55.109Z,100.00
2018-12-03T07:26:25.180Z,100.00
2018-12-03T07:28:55.094Z,100.00
2018-12-03T07:31:24.022Z,100.00
2018-12-03T07:33:54.932Z,100.00
2018-12-03T07:36:24.848Z,100.00
2018-12-03T07:38:55.778Z,100.00
2018-12-03T07:41:24.682Z,100.00
2018-12-03T07:43:54.586Z,100.00
2018-12-03T07:46:25.546Z,100.00
2018-12-03T07:48:59.460Z,100.00
2018-12-03T07:51:28.322Z,100.00
2018-12-03T07:53:57.206Z,100.00
2018-12-03T07:56:26.078Z,100.00
2018-12-03T07:58:56.054Z,100.00
2018-12-03T08:01:25.942Z,100.00
2018-12-03T08:03:55.877Z,100.00
2018-12-03T08:06:24.867Z,100.00
2018-12-03T08:08:55.052Z,100.00
2018-12-03T08:11:25.020Z,100.00
2018-12-03T08:13:55.023Z,100.00
2018-12-03T08:16:23.893Z,100.00
2018-12-03T08:18:57.927Z,100.00
2018-12-03T08:21:26.807Z,100.00
2018-12-03T08:24:01.979Z,100.00
2018-12-03T08:26:31.990Z,100.00
2018-12-03T08:29:02.899Z,100.00
2018-12-03T08:31:44.659Z,100.00
2018-12-03T08:34:13.526Z,100.00
2018-12-03T08:36:42.501Z,100.00
2018-12-03T08:39:12.486Z,100.00
2018-12-03T08:41:42.380Z,100.00
2018-12-03T08:44:11.278Z,100.00
2018-12-03T08:46:41.193Z,100.00
2018-12-03T08:49:10.090Z,100.00
2018-12-03T08:51:39.033Z,100.00
2018-12-03T08:54:07.960Z,100.00
2018-12-03T08:56:36.854Z,100.00
2018-12-03T08:59:05.738Z,100.00
2018-12-03T09:01:34.581Z,100.00
2018-12-03T09:04:06.668Z,100.00
2018-12-03T09:06:35.531Z,100.00
2018-12-03T09:09:07.721Z,100.00
2018-12-03T09:11:36.855Z,100.00
2018-12-03T09:14:05.991Z,100.00
2018-12-03T09:16:34.921Z,100.00
2018-12-03T09:19:03.830Z,100.00
2018-12-03T09:21:32.685Z,100.00
2018-12-03T09:24:02.650Z,100.00
2018-12-03T09:26:31.542Z,100.00
2018-12-03T09:29:01.463Z,100.00
2018-12-03T09:31:30.433Z,100.00
2018-12-03T09:34:00.354Z,100.00
2018-12-03T09:36:34.177Z,100.00
2018-12-03T09:39:12.293Z,100.00
2018-12-03T09:41:41.475Z,100.00
2018-12-03T09:44:11.446Z,100.00
2018-12-03T09:46:40.381Z,100.00
2018-12-03T09:49:09.312Z,100.00
2018-12-03T09:51:38.366Z,100.00
2018-12-03T09:54:08.603Z,98.09
2018-12-03T09:56:42.862Z,98.79
2018-12-03T09:59:13.554Z,98.59
2018-12-03T10:01:42.914Z,98.30
2018-12-03T10:04:16.505Z,98.96
2018-12-03T10:06:46.494Z,99.97
2018-12-03T10:09:16.936Z,98.52
2018-12-03T10:11:45.820Z,99.19
2018-12-03T10:14:17.982Z,99.39
2018-12-03T10:16:47.084Z,99.40
2018-12-03T10:19:15.974Z,98.63
2018-12-03T10:21:46.660Z,99.19
2018-12-03T10:24:16.970Z,97.20
2018-12-03T10:26:46.948Z,96.63
2018-12-03T10:29:17.808Z,97.10
2018-12-03T10:31:47.752Z,96.13
2018-12-03T10:34:18.945Z,94.57
2018-12-03T10:36:52.974Z,94.72
2018-12-03T10:39:28.548Z,95.07
2018-12-03T10:42:11.838Z,95.20
2018-12-03T10:44:41.841Z,96.12
2018-12-03T10:47:11.784Z,96.48
2018-12-03T10:49:41.813Z,97.19
2018-12-03T10:52:10.919Z,98.85
2018-12-03T10:54:42.242Z,97.95
2018-12-03T10:57:12.432Z,97.37
2018-12-03T10:59:51.642Z,98.04
2018-12-03T11:02:42.427Z,98.85
2018-12-03T11:05:17.682Z,98.99
2018-12-03T11:07:47.602Z,99.07
2018-12-03T11:10:17.996Z,98.46
2018-12-03T11:12:51.789Z,98.67
2018-12-03T11:15:22.514Z,96.99
2018-12-03T11:17:51.406Z,98.46
2018-12-03T11:20:21.365Z,98.17
2018-12-03T11:22:51.310Z,98.12
2018-12-03T11:25:28.982Z,97.38
2018-12-03T11:28:00.415Z,97.99
2018-12-03T11:30:30.657Z,98.55
2018-12-03T11:33:00.595Z,98.58
2018-12-03T11:35:31.129Z,98.42
2018-12-03T11:38:12.408Z,98.17
2018-12-03T11:40:49.861Z,97.30
2018-12-03T11:43:19.810Z,97.60
2018-12-03T11:45:49.716Z,96.89
2018-12-03T11:48:19.598Z,97.72
2018-12-03T11:50:49.552Z,96.82
2018-12-03T11:53:19.471Z,96.07
2018-12-03T11:55:48.468Z,96.77
2018-12-03T11:58:17.457Z,95.35
2018-12-03T12:00:46.436Z,94.87
2018-12-03T12:03:16.371Z,95.49
2018-12-03T12:05:45.252Z,95.83
2018-12-03T12:08:16.234Z,96.46
2018-12-03T12:10:46.224Z,97.04
2018-12-03T12:13:16.144Z,97.26
2018-12-03T12:15:46.007Z,98.59
2018-12-03T12:18:16.176Z,97.19
2018-12-03T12:20:50.073Z,98.66
2018-12-03T12:23:20.187Z,99.68
2018-12-03T12:25:50.157Z,98.81
2018-12-03T12:28:21.114Z,99.21
2018-12-03T12:30:50.002Z,98.29
2018-12-03T12:33:18.913Z,98.12
2018-12-03T12:35:48.854Z,98.39
2018-12-03T12:38:19.366Z,99.80
2018-12-03T12:40:49.798Z,99.39
2018-12-03T12:43:19.725Z,98.16
2018-12-03T12:45:58.231Z,99.22
2018-12-03T12:48:28.134Z,100.00
2018-12-03T12:50:58.058Z,100.00
2018-12-03T12:53:29.170Z,100.00
2018-12-03T12:55:59.094Z,100.00
2018-12-03T12:58:29.073Z,100.00
2018-12-03T13:00:59.948Z,100.00
2018-12-03T13:03:30.965Z,99.48
2018-12-03T13:06:00.989Z,100.00
2018-12-03T13:08:29.937Z,100.00
2018-12-03T13:10:59.875Z,100.00
2018-12-03T13:13:29.881Z,100.00
2018-12-03T13:15:58.775Z,100.00
2018-12-03T13:18:28.754Z,100.00
2018-12-03T13:20:58.688Z,100.00
2018-12-03T13:23:27.568Z,100.00
2018-12-03T13:25:56.533Z,100.00
2018-12-03T13:28:25.372Z,100.00
2018-12-03T13:30:54.345Z,100.00
2018-12-03T13:33:23.338Z,100.00
2018-12-03T13:35:52.330Z,100.00
2018-12-03T13:38:31.643Z,100.00
2018-12-03T13:41:01.540Z,100.00
2018-12-03T13:43:31.578Z,100.00
2018-12-03T13:46:01.533Z,100.00
2018-12-03T13:48:30.451Z,100.00
2018-12-03T13:51:00.399Z,100.00
2018-12-03T13:53:30.361Z,100.00
2018-12-03T13:56:00.257Z,100.00
2018-12-03T13:58:29.261Z,100.00
2018-12-03T14:00:58.150Z,100.00
2018-12-03T14:03:30.340Z,100.00
2018-12-03T14:06:21.110Z,100.00
2018-12-03T14:10:03.066Z,100.00
2018-12-03T14:12:38.745Z,100.00
2018-12-03T14:15:19.351Z,100.00
2018-12-03T14:18:05.620Z,100.00
2018-12-03T14:20:39.174Z,100.00
2018-12-03T14:23:10.996Z,100.00
2018-12-03T14:25:40.887Z,100.00
2018-12-03T14:28:09.793Z,100.00
2018-12-03T14:30:39.000Z,100.00
2018-12-03T14:33:08.107Z,100.00
2018-12-03T14:35:38.003Z,100.00
2018-12-03T14:38:08.024Z,100.00
2018-12-03T14:40:37.888Z,100.00
2018-12-03T14:43:07.883Z,100.00
2018-12-03T14:45:37.832Z,100.00
2018-12-03T14:48:08.866Z,100.00
2018-12-03T14:50:38.804Z,100.00
2018-12-03T14:53:07.958Z,100.00
2018-12-03T14:55:37.645Z,100.00
2018-12-03T14:58:07.957Z,100.00
2018-12-03T15:00:38.463Z,100.00
2018-12-03T15:03:08.828Z,100.00
2018-12-03T15:05:39.313Z,100.00
2018-12-03T15:08:09.775Z,100.00
2018-12-03T15:10:40.159Z,100.00
2018-12-03T15:13:10.582Z,100.00
2018-12-03T15:15:41.027Z,100.00
2018-12-03T15:18:11.450Z,100.00
2018-12-03T15:20:47.404Z,100.00
2018-12-03T15:23:16.687Z,100.00
2018-12-03T15:25:47.231Z,100.00
2018-12-03T15:28:17.431Z,100.00
2018-12-03T15:30:50.344Z,100.00
2018-12-03T15:33:20.398Z,100.00
2018-12-03T15:35:50.313Z,100.00
2018-12-03T15:38:20.210Z,100.00
2018-12-03T15:40:50.114Z,100.00
2018-12-03T15:43:20.066Z,100.00
2018-12-03T15:45:50.968Z,100.00
2018-12-03T15:48:20.961Z,100.00
2018-12-03T15:50:50.915Z,100.00
2018-12-03T15:53:20.839Z,100.00
2018-12-03T15:55:49.726Z,100.00
2018-12-03T15:58:20.654Z,100.00
2018-12-03T16:00:51.571Z,100.00
2018-12-03T16:03:21.520Z,100.00
2018-12-03T16:05:51.413Z,100.00
2018-12-03T16:08:20.276Z,100.00
2018-12-03T16:10:50.250Z,100.00
2018-12-03T16:13:20.236Z,100.00
2018-12-03T16:15:50.177Z,100.00
2018-12-03T16:18:19.063Z,100.00
2018-12-03T16:20:50.289Z,100.00
2018-12-03T16:23:21.485Z,100.00
2018-12-03T16:25:52.594Z,100.00
2018-12-03T16:28:23.536Z,100.00
2018-12-03T16:30:53.456Z,100.00
2018-12-03T16:33:23.424Z,100.00
2018-12-03T16:35:53.554Z,100.00
2018-12-03T16:38:23.594Z,100.00
2018-12-03T16:40:53.548Z,100.00
2018-12-03T16:43:23.514Z,100.00
2018-12-03T16:45:53.450Z,100.00
2018-12-03T16:48:23.370Z,100.00
2018-12-03T16:50:54.759Z,100.00
2018-12-03T16:53:24.778Z,100.00
2018-12-03T16:55:53.726Z,100.00
2018-12-03T16:58:23.616Z,100.00
2018-12-03T17:00:52.564Z,100.00
2018-12-03T17:03:22.613Z,100.00
2018-12-03T17:05:51.509Z,100.00
2018-12-03T17:08:21.461Z,100.00
2018-12-03T17:10:51.382Z,100.00
2018-12-03T17:13:21.278Z,100.00
2018-12-03T17:15:52.225Z,100.00
2018-12-03T17:18:22.217Z,100.00
2018-12-03T17:21:00.312Z,100.00
2018-12-03T17:24:40.387Z,100.00
2018-12-03T17:27:13.268Z,100.00
2018-12-03T17:29:44.539Z,100.00
2018-12-03T17:32:17.347Z,100.00
2018-12-03T17:34:48.815Z,100.00
2018-12-03T17:37:16.364Z,100.00
2018-12-03T17:39:46.369Z,100.00
2018-12-03T17:42:19.274Z,100.00
2018-12-03T17:44:48.244Z,100.00
2018-12-03T17:47:21.067Z,100.00
2018-12-03T17:49:51.294Z,100.00
2018-12-03T17:52:21.214Z,100.00
2018-12-03T17:54:52.155Z,100.00
2018-12-03T17:57:22.146Z,100.00
2018-12-03T17:59:51.079Z,100.00
2018-12-03T18:02:22.048Z,100.00
2018-12-03T18:04:52.932Z,100.00
2018-12-03T18:07:21.896Z,100.00
2018-12-03T18:09:51.997Z,100.00
2018-12-03T18:12:21.877Z,100.00
2018-12-03T18:14:51.854Z,100.00
2018-12-03T18:17:21.827Z,100.00
2018-12-03T18:19:52.094Z,100.00
2018-12-03T18:22:22.071Z,100.00
2018-12-03T18:24:51.998Z,100.00
2018-12-03T18:27:22.892Z,100.00
2018-12-03T18:29:53.862Z,100.00
2018-12-03T18:32:24.764Z,100.00
2018-12-03T18:34:58.699Z,100.00
2018-12-03T18:37:33.184Z,100.00
2018-12-03T18:40:02.119Z,100.00
2018-12-03T18:42:31.184Z,100.00
2018-12-03T18:45:01.111Z,100.00
2018-12-03T18:47:32.180Z,100.00
2018-12-03T18:50:05.026Z,100.00
2018-12-03T18:52:34.972Z,100.00
2018-12-03T18:55:04.929Z,100.00
2018-12-03T18:57:35.106Z,100.00
2018-12-03T19:00:06.455Z,100.00
2018-12-03T19:02:36.399Z,100.00
2018-12-03T19:05:06.416Z,100.00
2018-12-03T19:07:36.471Z,100.00
2018-12-03T19:10:08.119Z,100.00
2018-12-03T19:12:44.334Z,100.00
2018-12-03T19:15:14.341Z,100.00
2018-12-03T19:17:43.839Z,100.00
2018-12-03T19:20:13.703Z,100.00
2018-12-03T19:22:45.785Z,100.00
2018-12-03T19:25:17.587Z,100.00
2018-12-03T19:27:48.284Z,100.00
2018-12-03T19:30:19.159Z,100.00
2018-12-03T19:32:49.934Z,100.00
2018-12-03T19:35:20.071Z,100.00
2018-12-03T19:37:50.080Z,100.00
2018-12-03T19:40:21.033Z,100.00
2018-12-03T19:42:50.936Z,100.00
2018-12-03T19:45:21.387Z,100.00
2018-12-03T19:47:52.317Z,100.00
2018-12-03T19:50:23.150Z,100.00
2018-12-03T19:52:54.657Z,100.00
2018-12-03T19:55:26.069Z,100.00
2018-12-03T19:58:06.744Z,100.00
2018-12-03T20:00:35.667Z,100.00
2018-12-03T20:03:05.627Z,100.00
2018-12-03T20:05:34.638Z,100.00
2018-12-03T20:08:04.554Z,100.00
2018-12-03T20:10:35.573Z,100.00
2018-12-03T20:13:05.537Z,100.00
2018-12-03T20:15:34.457Z,100.00
2018-12-03T20:18:04.521Z,100.00
2018-12-03T20:20:39.446Z,100.00
2018-12-03T20:23:18.314Z,100.00
2018-12-03T20:26:06.173Z,100.00
2018-12-03T20:28:43.746Z,100.00
2018-12-03T20:37:43.698Z,100.00
2018-12-03T20:41:23.732Z,100.00
2018-12-03T20:43:55.942Z,100.00
2018-12-03T20:47:50.026Z,100.00
2018-12-03T20:58:59.380Z,100.00
2018-12-03T21:01:35.924Z,100.00
2018-12-03T21:04:05.860Z,100.00
2018-12-03T21:06:35.852Z,100.00
2018-12-03T21:09:06.180Z,100.00
2018-12-03T21:11:37.206Z,100.00
2018-12-03T21:14:07.184Z,100.00
2018-12-03T21:16:37.116Z,100.00
2018-12-03T21:19:06.123Z,100.00
2018-12-03T21:21:36.146Z,100.00
2018-12-03T21:24:07.143Z,100.00
2018-12-03T21:26:38.115Z,100.00
2018-12-03T21:29:09.134Z,100.00
2018-12-03T21:31:40.162Z,100.00
2018-12-03T21:34:10.656Z,100.00
2018-12-03T21:36:43.412Z,100.00
2018-12-03T21:39:12.496Z,100.00
2018-12-03T21:41:41.622Z,100.00
2018-12-03T21:44:14.883Z,100.00
2018-12-03T21:46:43.860Z,100.00
2018-12-03T21:49:14.821Z,100.00
2018-12-03T21:51:45.720Z,100.00
2018-12-03T21:54:15.630Z,100.00
2018-12-03T21:56:45.643Z,100.00
2018-12-03T21:59:14.565Z,100.00
2018-12-03T22:01:44.510Z,100.00
2018-12-03T22:04:14.594Z,100.00
2018-12-03T22:07:27.168Z,100.00
2018-12-03T22:10:06.198Z,100.00
2018-12-03T22:15:38.455Z,100.00
2018-12-03T22:18:29.887Z,100.00
2018-12-03T22:21:02.359Z,100.00
2018-12-03T22:23:46.703Z,100.00
2018-12-03T22:26:31.760Z,100.00
2018-12-03T22:29:07.107Z,100.00
2018-12-03T22:31:38.413Z,100.00
2018-12-03T22:34:22.879Z,100.00
2018-12-03T22:36:48.943Z,100.00
2018-12-03T22:39:29.706Z,100.00
2018-12-03T22:42:07.917Z,100.00
2018-12-03T22:47:39.998Z,100.00
2018-12-03T22:50:12.635Z,100.00
2018-12-03T22:52:47.413Z,100.00
2018-12-03T22:55:34.717Z,100.00
2018-12-03T22:58:20.203Z,100.00
2018-12-03T23:00:56.734Z,100.00
2018-12-03T23:03:40.025Z,100.00
2018-12-03T23:06:18.732Z,100.00
2018-12-03T23:08:52.934Z,100.00
2018-12-03T23:11:25.143Z,100.00
2018-12-03T23:13:56.297Z,100.00
2018-12-03T23:16:34.870Z,100.00
2018-12-03T23:19:14.933Z,100.00
2018-12-03T23:21:48.980Z,100.00
2018-12-03T23:24:33.627Z,100.00
2018-12-03T23:27:16.854Z,100.00
2018-12-03T23:29:48.541Z,100.00
2018-12-03T23:32:20.487Z,100.00
2018-12-03T23:34:54.472Z,100.00
2018-12-03T23:37:43.687Z,100.00
2018-12-03T23:40:24.236Z,100.00
2018-12-03T23:43:02.562Z,100.00
2018-12-03T23:45:36.597Z,99.38
2018-12-03T23:51:05.603Z,100.00
2018-12-03T23:53:36.817Z,100.00
2018-12-03T23:56:24.779Z,97.35
2018-12-03T23:59:02.601Z,98.17
